sensor_id;sensor_type;location;lat;lon;timestamp;P1;durP1;ratioP1;P2;durP2;ratioP2
24261;SDS011;12385;51.412;5.540;2023-03-01T00:01:24;15.10;;;9.48;;
24261;SDS011;12385;51.412;5.540;2023-03-01T00:03:51;15.50;;;9.93;;
24261;SDS011;12385;51.412;5.540;2023-03-01T00:06:18;15.38;;;10.65;;
24261;SDS011;12385;51.412;5.540;2023-03-01T00:08:44;14.38;;;9.40;;
24261;SDS011;12385;51.412;5.540;2023-03-01T00:11:15;18.27;;;10.10;;
24261;SDS011;12385;51.412;5.540;2023-03-01T00:13:49;13.73;;;8.93;;
24261;SDS011;12385;51.412;5.540;2023-03-01T00:16:17;14.55;;;8.68;;
24261;SDS011;12385;51.412;5.540;2023-03-01T00:18:45;15.48;;;8.63;;
24261;SDS011;12385;51.412;5.540;2023-03-01T00:21:11;14.73;;;9.18;;
24261;SDS011;12385;51.412;5.540;2023-03-01T00:23:38;15.30;;;9.32;;
24261;SDS011;12385;51.412;5.540;2023-03-01T00:26:08;13.30;;;8.80;;
24261;SDS011;12385;51.412;5.540;2023-03-01T00:28:35;14.32;;;8.50;;
24261;SDS011;12385;51.412;5.540;2023-03-01T00:31:08;12.68;;;8.55;;
24261;SDS011;12385;51.412;5.540;2023-03-01T00:33:36;14.02;;;9.15;;
24261;SDS011;12385;51.412;5.540;2023-03-01T00:36:02;14.93;;;9.77;;
24261;SDS011;12385;51.412;5.540;2023-03-01T00:38:28;14.73;;;9.60;;
24261;SDS011;12385;51.412;5.540;2023-03-01T00:40:54;14.13;;;9.82;;
24261;SDS011;12385;51.412;5.540;2023-03-01T00:43:20;15.10;;;10.18;;
24261;SDS011;12385;51.412;5.540;2023-03-01T00:45:46;18.73;;;10.82;;
24261;SDS011;12385;51.412;5.540;2023-03-01T00:48:11;16.85;;;11.27;;
24261;SDS011;12385;51.412;5.540;2023-03-01T00:50:38;14.93;;;10.15;;
24261;SDS011;12385;51.412;5.540;2023-03-01T00:53:03;15.40;;;10.00;;
24261;SDS011;12385;51.412;5.540;2023-03-01T00:55:30;13.75;;;9.23;;
24261;SDS011;12385;51.412;5.540;2023-03-01T00:57:55;14.88;;;8.48;;
24261;SDS011;12385;51.412;5.540;2023-03-01T01:00:21;14.75;;;9.30;;
24261;SDS011;12385;51.412;5.540;2023-03-01T01:02:47;14.88;;;9.32;;
24261;SDS011;12385;51.412;5.540;2023-03-01T01:05:13;19.55;;;9.40;;
24261;SDS011;12385;51.412;5.540;2023-03-01T01:07:39;15.90;;;9.48;;
24261;SDS011;12385;51.412;5.540;2023-03-01T01:10:05;16.65;;;9.30;;
24261;SDS011;12385;51.412;5.540;2023-03-01T01:12:31;13.85;;;8.85;;
24261;SDS011;12385;51.412;5.540;2023-03-01T01:14:57;15.75;;;10.02;;
24261;SDS011;12385;51.412;5.540;2023-03-01T01:17:23;15.05;;;9.90;;
24261;SDS011;12385;51.412;5.540;2023-03-01T01:19:48;17.52;;;10.25;;
24261;SDS011;12385;51.412;5.540;2023-03-01T01:22:14;20.73;;;10.35;;
24261;SDS011;12385;51.412;5.540;2023-03-01T01:24:39;17.13;;;9.50;;
24261;SDS011;12385;51.412;5.540;2023-03-01T01:27:05;15.65;;;10.05;;
24261;SDS011;12385;51.412;5.540;2023-03-01T01:29:32;17.15;;;9.98;;
24261;SDS011;12385;51.412;5.540;2023-03-01T01:31:57;16.15;;;10.13;;
24261;SDS011;12385;51.412;5.540;2023-03-01T01:34:23;15.80;;;9.98;;
24261;SDS011;12385;51.412;5.540;2023-03-01T01:36:52;16.95;;;10.00;;
24261;SDS011;12385;51.412;5.540;2023-03-01T01:41:45;16.92;;;10.05;;
24261;SDS011;12385;51.412;5.540;2023-03-01T01:52:12;19.02;;;11.15;;
24261;SDS011;12385;51.412;5.540;2023-03-01T01:57:09;18.15;;;11.38;;
24261;SDS011;12385;51.412;5.540;2023-03-01T01:59:41;17.20;;;11.13;;
24261;SDS011;12385;51.412;5.540;2023-03-01T02:02:10;18.38;;;11.02;;
24261;SDS011;12385;51.412;5.540;2023-03-01T02:04:38;17.17;;;10.43;;
24261;SDS011;12385;51.412;5.540;2023-03-01T02:07:07;20.08;;;11.57;;
24261;SDS011;12385;51.412;5.540;2023-03-01T02:09:47;15.85;;;10.80;;
24261;SDS011;12385;51.412;5.540;2023-03-01T02:12:15;20.75;;;10.15;;
24261;SDS011;12385;51.412;5.540;2023-03-01T02:14:44;17.83;;;10.77;;
24261;SDS011;12385;51.412;5.540;2023-03-01T02:17:11;16.65;;;10.98;;
24261;SDS011;12385;51.412;5.540;2023-03-01T02:22:46;18.55;;;10.82;;
24261;SDS011;12385;51.412;5.540;2023-03-01T02:30:35;17.17;;;11.20;;
24261;SDS011;12385;51.412;5.540;2023-03-01T02:33:02;18.17;;;11.15;;
24261;SDS011;12385;51.412;5.540;2023-03-01T02:35:37;17.33;;;11.57;;
24261;SDS011;12385;51.412;5.540;2023-03-01T02:38:03;20.08;;;12.25;;
24261;SDS011;12385;51.412;5.540;2023-03-01T02:40:33;16.17;;;8.93;;
24261;SDS011;12385;51.412;5.540;2023-03-01T02:43:00;17.75;;;11.35;;
24261;SDS011;12385;51.412;5.540;2023-03-01T02:45:26;16.23;;;11.32;;
24261;SDS011;12385;51.412;5.540;2023-03-01T02:47:56;16.02;;;9.48;;
24261;SDS011;12385;51.412;5.540;2023-03-01T02:53:06;13.65;;;9.95;;
24261;SDS011;12385;51.412;5.540;2023-03-01T02:55:41;15.63;;;9.68;;
24261;SDS011;12385;51.412;5.540;2023-03-01T02:58:07;17.77;;;9.43;;
24261;SDS011;12385;51.412;5.540;2023-03-01T03:00:37;13.52;;;8.98;;
24261;SDS011;12385;51.412;5.540;2023-03-01T03:03:12;14.57;;;9.70;;
24261;SDS011;12385;51.412;5.540;2023-03-01T03:05:40;14.82;;;8.88;;
24261;SDS011;12385;51.412;5.540;2023-03-01T03:08:05;17.02;;;9.80;;
24261;SDS011;12385;51.412;5.540;2023-03-01T03:10:33;15.57;;;9.73;;
24261;SDS011;12385;51.412;5.540;2023-03-01T03:13:03;14.52;;;9.77;;
24261;SDS011;12385;51.412;5.540;2023-03-01T03:15:31;15.55;;;9.73;;
24261;SDS011;12385;51.412;5.540;2023-03-01T03:17:57;13.45;;;9.45;;
24261;SDS011;12385;51.412;5.540;2023-03-01T03:20:25;13.60;;;8.82;;
24261;SDS011;12385;51.412;5.540;2023-03-01T03:22:53;14.02;;;9.25;;
24261;SDS011;12385;51.412;5.540;2023-03-01T03:25:20;14.77;;;8.63;;
24261;SDS011;12385;51.412;5.540;2023-03-01T03:27:47;15.27;;;9.45;;
24261;SDS011;12385;51.412;5.540;2023-03-01T03:30:15;17.13;;;9.48;;
24261;SDS011;12385;51.412;5.540;2023-03-01T03:32:44;16.55;;;9.52;;
24261;SDS011;12385;51.412;5.540;2023-03-01T03:35:18;13.40;;;9.15;;
24261;SDS011;12385;51.412;5.540;2023-03-01T03:37:49;14.00;;;8.40;;
24261;SDS011;12385;51.412;5.540;2023-03-01T03:40:34;16.50;;;10.02;;
24261;SDS011;12385;51.412;5.540;2023-03-01T03:43:03;15.13;;;9.00;;
24261;SDS011;12385;51.412;5.540;2023-03-01T03:45:29;14.98;;;9.70;;
24261;SDS011;12385;51.412;5.540;2023-03-01T03:47:58;18.40;;;10.88;;
24261;SDS011;12385;51.412;5.540;2023-03-01T03:50:24;16.55;;;10.27;;
24261;SDS011;12385;51.412;5.540;2023-03-01T03:52:49;19.05;;;10.88;;
24261;SDS011;12385;51.412;5.540;2023-03-01T03:55:15;18.83;;;10.50;;
24261;SDS011;12385;51.412;5.540;2023-03-01T03:57:44;18.90;;;9.67;;
24261;SDS011;12385;51.412;5.540;2023-03-01T04:00:16;16.08;;;9.60;;
24261;SDS011;12385;51.412;5.540;2023-03-01T04:02:44;14.82;;;10.00;;
24261;SDS011;12385;51.412;5.540;2023-03-01T04:05:11;12.85;;;9.02;;
24261;SDS011;12385;51.412;5.540;2023-03-01T04:07:39;16.17;;;9.35;;
24261;SDS011;12385;51.412;5.540;2023-03-01T04:10:06;15.00;;;9.35;;
24261;SDS011;12385;51.412;5.540;2023-03-01T04:12:34;15.90;;;9.57;;
24261;SDS011;12385;51.412;5.540;2023-03-01T04:15:01;16.35;;;9.70;;
24261;SDS011;12385;51.412;5.540;2023-03-01T04:17:37;16.42;;;9.00;;
24261;SDS011;12385;51.412;5.540;2023-03-01T04:20:22;15.88;;;9.30;;
24261;SDS011;12385;51.412;5.540;2023-03-01T04:22:57;15.48;;;9.10;;
24261;SDS011;12385;51.412;5.540;2023-03-01T04:25:25;16.45;;;9.70;;
24261;SDS011;12385;51.412;5.540;2023-03-01T04:27:51;16.88;;;9.82;;
24261;SDS011;12385;51.412;5.540;2023-03-01T04:30:17;19.58;;;10.25;;
24261;SDS011;12385;51.412;5.540;2023-03-01T04:32:42;15.43;;;10.38;;
24261;SDS011;12385;51.412;5.540;2023-03-01T04:35:08;14.65;;;9.20;;
24261;SDS011;12385;51.412;5.540;2023-03-01T04:37:34;16.13;;;9.43;;
24261;SDS011;12385;51.412;5.540;2023-03-01T04:40:00;15.25;;;9.68;;
24261;SDS011;12385;51.412;5.540;2023-03-01T04:42:37;14.35;;;9.30;;
24261;SDS011;12385;51.412;5.540;2023-03-01T04:45:02;20.30;;;10.15;;
24261;SDS011;12385;51.412;5.540;2023-03-01T04:47:34;17.75;;;9.85;;
24261;SDS011;12385;51.412;5.540;2023-03-01T04:50:03;15.55;;;9.93;;
24261;SDS011;12385;51.412;5.540;2023-03-01T04:52:29;18.00;;;10.48;;
24261;SDS011;12385;51.412;5.540;2023-03-01T04:54:54;17.38;;;10.05;;
24261;SDS011;12385;51.412;5.540;2023-03-01T04:57:20;19.60;;;10.38;;
24261;SDS011;12385;51.412;5.540;2023-03-01T04:59:45;14.38;;;9.07;;
24261;SDS011;12385;51.412;5.540;2023-03-01T05:02:11;20.33;;;10.48;;
24261;SDS011;12385;51.412;5.540;2023-03-01T05:04:36;16.65;;;10.73;;
24261;SDS011;12385;51.412;5.540;2023-03-01T05:07:02;15.30;;;9.65;;
24261;SDS011;12385;51.412;5.540;2023-03-01T05:09:28;15.40;;;10.15;;
24261;SDS011;12385;51.412;5.540;2023-03-01T05:11:53;17.40;;;10.30;;
24261;SDS011;12385;51.412;5.540;2023-03-01T05:14:19;15.65;;;10.57;;
24261;SDS011;12385;51.412;5.540;2023-03-01T05:16:45;19.40;;;11.65;;
24261;SDS011;12385;51.412;5.540;2023-03-01T05:19:10;15.70;;;10.27;;
24261;SDS011;12385;51.412;5.540;2023-03-01T05:21:40;14.95;;;10.10;;
24261;SDS011;12385;51.412;5.540;2023-03-01T05:24:25;16.80;;;10.43;;
24261;SDS011;12385;51.412;5.540;2023-03-01T05:26:52;15.80;;;10.07;;
24261;SDS011;12385;51.412;5.540;2023-03-01T05:29:18;19.40;;;10.25;;
24261;SDS011;12385;51.412;5.540;2023-03-01T05:31:49;16.20;;;9.98;;
24261;SDS011;12385;51.412;5.540;2023-03-01T05:34:26;20.13;;;10.57;;
24261;SDS011;12385;51.412;5.540;2023-03-01T05:36:54;19.73;;;10.77;;
24261;SDS011;12385;51.412;5.540;2023-03-01T05:39:20;16.13;;;11.05;;
24261;SDS011;12385;51.412;5.540;2023-03-01T05:41:47;17.52;;;10.43;;
24261;SDS011;12385;51.412;5.540;2023-03-01T05:44:13;17.77;;;10.82;;
24261;SDS011;12385;51.412;5.540;2023-03-01T05:46:39;19.85;;;11.07;;
24261;SDS011;12385;51.412;5.540;2023-03-01T05:49:05;17.92;;;10.23;;
24261;SDS011;12385;51.412;5.540;2023-03-01T05:51:31;18.90;;;11.13;;
24261;SDS011;12385;51.412;5.540;2023-03-01T05:53:58;18.38;;;11.10;;
24261;SDS011;12385;51.412;5.540;2023-03-01T05:56:24;19.17;;;11.27;;
24261;SDS011;12385;51.412;5.540;2023-03-01T05:58:49;20.95;;;11.95;;
24261;SDS011;12385;51.412;5.540;2023-03-01T06:01:15;17.98;;;11.05;;
24261;SDS011;12385;51.412;5.540;2023-03-01T06:03:41;17.23;;;10.95;;
24261;SDS011;12385;51.412;5.540;2023-03-01T06:06:06;19.80;;;11.77;;
24261;SDS011;12385;51.412;5.540;2023-03-01T06:08:32;19.08;;;12.00;;
24261;SDS011;12385;51.412;5.540;2023-03-01T06:10:58;20.40;;;11.43;;
24261;SDS011;12385;51.412;5.540;2023-03-01T06:13:24;20.75;;;11.95;;
24261;SDS011;12385;51.412;5.540;2023-03-01T06:15:50;22.17;;;11.80;;
24261;SDS011;12385;51.412;5.540;2023-03-01T06:18:16;20.88;;;12.30;;
24261;SDS011;12385;51.412;5.540;2023-03-01T06:20:41;20.13;;;11.70;;
24261;SDS011;12385;51.412;5.540;2023-03-01T06:23:07;18.88;;;11.25;;
24261;SDS011;12385;51.412;5.540;2023-03-01T06:25:32;18.13;;;11.15;;
24261;SDS011;12385;51.412;5.540;2023-03-01T06:27:58;19.33;;;11.73;;
24261;SDS011;12385;51.412;5.540;2023-03-01T06:30:25;17.95;;;11.15;;
24261;SDS011;12385;51.412;5.540;2023-03-01T06:32:50;22.00;;;12.70;;
24261;SDS011;12385;51.412;5.540;2023-03-01T06:35:17;23.02;;;13.30;;
24261;SDS011;12385;51.412;5.540;2023-03-01T06:37:44;23.52;;;12.48;;
24261;SDS011;12385;51.412;5.540;2023-03-01T06:40:11;20.33;;;12.40;;
24261;SDS011;12385;51.412;5.540;2023-03-01T06:42:39;18.38;;;12.27;;
24261;SDS011;12385;51.412;5.540;2023-03-01T06:45:09;19.05;;;12.32;;
24261;SDS011;12385;51.412;5.540;2023-03-01T06:47:35;23.70;;;12.57;;
24261;SDS011;12385;51.412;5.540;2023-03-01T06:50:01;19.30;;;12.18;;
24261;SDS011;12385;51.412;5.540;2023-03-01T06:52:28;22.73;;;12.30;;
24261;SDS011;12385;51.412;5.540;2023-03-01T06:54:54;22.17;;;12.50;;
24261;SDS011;12385;51.412;5.540;2023-03-01T06:57:19;20.73;;;12.63;;
24261;SDS011;12385;51.412;5.540;2023-03-01T06:59:46;21.50;;;12.43;;
24261;SDS011;12385;51.412;5.540;2023-03-01T07:02:12;20.15;;;11.55;;
24261;SDS011;12385;51.412;5.540;2023-03-01T07:04:39;23.20;;;12.70;;
24261;SDS011;12385;51.412;5.540;2023-03-01T07:07:04;20.58;;;11.43;;
24261;SDS011;12385;51.412;5.540;2023-03-01T07:09:30;19.35;;;12.60;;
24261;SDS011;12385;51.412;5.540;2023-03-01T07:11:56;21.27;;;11.32;;
24261;SDS011;12385;51.412;5.540;2023-03-01T07:14:22;28.15;;;12.98;;
24261;SDS011;12385;51.412;5.540;2023-03-01T07:16:54;21.73;;;12.20;;
24261;SDS011;12385;51.412;5.540;2023-03-01T07:19:20;19.67;;;12.95;;
24261;SDS011;12385;51.412;5.540;2023-03-01T07:21:47;19.27;;;11.70;;
24261;SDS011;12385;51.412;5.540;2023-03-01T07:24:12;20.08;;;11.77;;
24261;SDS011;12385;51.412;5.540;2023-03-01T07:26:38;24.23;;;12.10;;
24261;SDS011;12385;51.412;5.540;2023-03-01T07:29:05;22.15;;;12.02;;
24261;SDS011;12385;51.412;5.540;2023-03-01T07:31:31;21.52;;;12.45;;
24261;SDS011;12385;51.412;5.540;2023-03-01T07:33:57;19.95;;;12.63;;
24261;SDS011;12385;51.412;5.540;2023-03-01T07:36:23;19.77;;;12.40;;
24261;SDS011;12385;51.412;5.540;2023-03-01T07:38:49;21.75;;;12.13;;
24261;SDS011;12385;51.412;5.540;2023-03-01T07:41:15;19.50;;;12.73;;
24261;SDS011;12385;51.412;5.540;2023-03-01T07:43:41;24.88;;;12.65;;
24261;SDS011;12385;51.412;5.540;2023-03-01T07:46:07;19.70;;;12.30;;
24261;SDS011;12385;51.412;5.540;2023-03-01T07:48:34;22.92;;;11.20;;
24261;SDS011;12385;51.412;5.540;2023-03-01T07:51:00;19.75;;;11.70;;
24261;SDS011;12385;51.412;5.540;2023-03-01T07:53:27;19.92;;;12.52;;
24261;SDS011;12385;51.412;5.540;2023-03-01T07:56:00;19.10;;;11.98;;
24261;SDS011;12385;51.412;5.540;2023-03-01T07:58:27;20.95;;;11.55;;
24261;SDS011;12385;51.412;5.540;2023-03-01T08:00:53;19.45;;;11.45;;
24261;SDS011;12385;51.412;5.540;2023-03-01T08:03:18;19.95;;;12.20;;
24261;SDS011;12385;51.412;5.540;2023-03-01T08:05:44;19.35;;;11.63;;
24261;SDS011;12385;51.412;5.540;2023-03-01T08:08:09;18.25;;;11.38;;
24261;SDS011;12385;51.412;5.540;2023-03-01T08:10:35;20.95;;;11.65;;
24261;SDS011;12385;51.412;5.540;2023-03-01T08:13:01;20.30;;;11.50;;
24261;SDS011;12385;51.412;5.540;2023-03-01T08:15:27;19.58;;;11.32;;
24261;SDS011;12385;51.412;5.540;2023-03-01T08:17:52;24.23;;;11.23;;
24261;SDS011;12385;51.412;5.540;2023-03-01T08:20:18;18.45;;;11.50;;
24261;SDS011;12385;51.412;5.540;2023-03-01T08:22:44;19.30;;;11.10;;
24261;SDS011;12385;51.412;5.540;2023-03-01T08:25:10;17.52;;;10.52;;
24261;SDS011;12385;51.412;5.540;2023-03-01T08:27:36;19.90;;;10.50;;
24261;SDS011;12385;51.412;5.540;2023-03-01T08:30:02;18.30;;;10.55;;
24261;SDS011;12385;51.412;5.540;2023-03-01T08:32:27;20.63;;;11.00;;
24261;SDS011;12385;51.412;5.540;2023-03-01T08:34:53;15.57;;;10.05;;
24261;SDS011;12385;51.412;5.540;2023-03-01T08:37:19;17.77;;;10.25;;
24261;SDS011;12385;51.412;5.540;2023-03-01T08:39:44;16.70;;;9.40;;
24261;SDS011;12385;51.412;5.540;2023-03-01T08:42:10;17.20;;;9.60;;
24261;SDS011;12385;51.412;5.540;2023-03-01T08:44:35;16.92;;;9.60;;
24261;SDS011;12385;51.412;5.540;2023-03-01T08:47:01;16.13;;;9.43;;
24261;SDS011;12385;51.412;5.540;2023-03-01T08:49:27;15.43;;;9.23;;
24261;SDS011;12385;51.412;5.540;2023-03-01T08:51:53;14.23;;;8.80;;
24261;SDS011;12385;51.412;5.540;2023-03-01T08:54:20;17.25;;;9.70;;
24261;SDS011;12385;51.412;5.540;2023-03-01T08:56:47;15.02;;;9.82;;
24261;SDS011;12385;51.412;5.540;2023-03-01T08:59:16;16.77;;;9.50;;
24261;SDS011;12385;51.412;5.540;2023-03-01T09:04:09;14.57;;;9.45;;
24261;SDS011;12385;51.412;5.540;2023-03-01T09:06:35;14.85;;;9.50;;
24261;SDS011;12385;51.412;5.540;2023-03-01T09:09:02;15.88;;;9.50;;
24261;SDS011;12385;51.412;5.540;2023-03-01T09:11:30;19.33;;;9.77;;
24261;SDS011;12385;51.412;5.540;2023-03-01T09:13:55;15.10;;;9.00;;
24261;SDS011;12385;51.412;5.540;2023-03-01T09:16:21;15.98;;;9.10;;
24261;SDS011;12385;51.412;5.540;2023-03-01T09:18:49;14.75;;;9.43;;
24261;SDS011;12385;51.412;5.540;2023-03-01T09:21:19;17.30;;;9.30;;
24261;SDS011;12385;51.412;5.540;2023-03-01T09:23:47;15.07;;;9.10;;
24261;SDS011;12385;51.412;5.540;2023-03-01T09:26:20;12.82;;;8.88;;
24261;SDS011;12385;51.412;5.540;2023-03-01T09:28:47;15.73;;;8.73;;
24261;SDS011;12385;51.412;5.540;2023-03-01T09:31:15;18.50;;;9.18;;
24261;SDS011;12385;51.412;5.540;2023-03-01T09:33:42;17.48;;;9.00;;
24261;SDS011;12385;51.412;5.540;2023-03-01T09:36:11;15.43;;;9.43;;
24261;SDS011;12385;51.412;5.540;2023-03-01T09:38:39;17.70;;;9.45;;
24261;SDS011;12385;51.412;5.540;2023-03-01T09:43:46;15.15;;;9.48;;
24261;SDS011;12385;51.412;5.540;2023-03-01T09:46:19;16.67;;;9.82;;
24261;SDS011;12385;51.412;5.540;2023-03-01T09:49:01;16.67;;;9.93;;
24261;SDS011;12385;51.412;5.540;2023-03-01T09:51:31;14.55;;;9.52;;
24261;SDS011;12385;51.412;5.540;2023-03-01T09:53:58;17.08;;;10.45;;
24261;SDS011;12385;51.412;5.540;2023-03-01T09:56:34;17.95;;;11.18;;
24261;SDS011;12385;51.412;5.540;2023-03-01T10:04:45;20.75;;;11.27;;
24261;SDS011;12385;51.412;5.540;2023-03-01T10:08:00;18.45;;;11.38;;
24261;SDS011;12385;51.412;5.540;2023-03-01T10:10:29;19.38;;;11.73;;
24261;SDS011;12385;51.412;5.540;2023-03-01T10:13:00;19.98;;;11.23;;
24261;SDS011;12385;51.412;5.540;2023-03-01T10:15:47;20.60;;;11.05;;
24261;SDS011;12385;51.412;5.540;2023-03-01T10:18:20;16.60;;;10.27;;
24261;SDS011;12385;51.412;5.540;2023-03-01T10:23:28;16.92;;;10.45;;
24261;SDS011;12385;51.412;5.540;2023-03-01T10:30:56;16.95;;;10.07;;
24261;SDS011;12385;51.412;5.540;2023-03-01T10:33:24;16.25;;;9.60;;
24261;SDS011;12385;51.412;5.540;2023-03-01T10:35:52;16.40;;;10.00;;
24261;SDS011;12385;51.412;5.540;2023-03-01T10:38:18;17.48;;;9.75;;
24261;SDS011;12385;51.412;5.540;2023-03-01T10:40:59;17.05;;;9.60;;
24261;SDS011;12385;51.412;5.540;2023-03-01T10:43:32;16.77;;;10.02;;
24261;SDS011;12385;51.412;5.540;2023-03-01T10:46:26;17.45;;;10.02;;
24261;SDS011;12385;51.412;5.540;2023-03-01T10:51:40;15.02;;;9.02;;
24261;SDS011;12385;51.412;5.540;2023-03-01T10:54:27;17.75;;;9.60;;
24261;SDS011;12385;51.412;5.540;2023-03-01T10:56:55;16.05;;;9.68;;
24261;SDS011;12385;51.412;5.540;2023-03-01T10:59:30;15.50;;;9.70;;
24261;SDS011;12385;51.412;5.540;2023-03-01T11:05:03;16.25;;;9.70;;
24261;SDS011;12385;51.412;5.540;2023-03-01T11:07:48;17.83;;;10.32;;
24261;SDS011;12385;51.412;5.540;2023-03-01T11:10:28;21.75;;;10.48;;
24261;SDS011;12385;51.412;5.540;2023-03-01T11:13:08;16.73;;;9.68;;
24261;SDS011;12385;51.412;5.540;2023-03-01T11:15:43;16.90;;;10.45;;
24261;SDS011;12385;51.412;5.540;2023-03-01T11:18:24;18.85;;;10.23;;
24261;SDS011;12385;51.412;5.540;2023-03-01T11:20:51;18.52;;;9.77;;
24261;SDS011;12385;51.412;5.540;2023-03-01T11:23:19;19.15;;;9.40;;
24261;SDS011;12385;51.412;5.540;2023-03-01T11:25:48;16.45;;;9.50;;
24261;SDS011;12385;51.412;5.540;2023-03-01T11:28:19;16.23;;;9.77;;
24261;SDS011;12385;51.412;5.540;2023-03-01T11:30:51;16.08;;;9.57;;
24261;SDS011;12385;51.412;5.540;2023-03-01T11:36:01;16.17;;;8.80;;
24261;SDS011;12385;51.412;5.540;2023-03-01T11:38:35;18.98;;;9.82;;
24261;SDS011;12385;51.412;5.540;2023-03-01T11:41:14;17.20;;;9.65;;
24261;SDS011;12385;51.412;5.540;2023-03-01T11:43:47;16.25;;;8.63;;
24261;SDS011;12385;51.412;5.540;2023-03-01T11:59:56;13.73;;;7.68;;
24261;SDS011;12385;51.412;5.540;2023-03-01T12:02:53;14.40;;;8.00;;
24261;SDS011;12385;51.412;5.540;2023-03-01T12:10:43;11.85;;;7.30;;
24261;SDS011;12385;51.412;5.540;2023-03-01T12:21:54;12.27;;;6.75;;
24261;SDS011;12385;51.412;5.540;2023-03-01T12:29:23;11.73;;;7.15;;
24261;SDS011;12385;51.412;5.540;2023-03-01T12:51:16;9.15;;;6.35;;
24261;SDS011;12385;51.412;5.540;2023-03-01T12:53:49;12.18;;;7.10;;
24261;SDS011;12385;51.412;5.540;2023-03-01T12:56:21;10.75;;;5.70;;
24261;SDS011;12385;51.412;5.540;2023-03-01T12:59:01;10.27;;;6.25;;
24261;SDS011;12385;51.412;5.540;2023-03-01T13:12:03;11.55;;;6.70;;
24261;SDS011;12385;51.412;5.540;2023-03-01T13:14:49;11.65;;;6.40;;
24261;SDS011;12385;51.412;5.540;2023-03-01T13:17:29;11.43;;;6.70;;
24261;SDS011;12385;51.412;5.540;2023-03-01T13:19:57;8.68;;;6.07;;
24261;SDS011;12385;51.412;5.540;2023-03-01T13:22:29;10.75;;;6.43;;
24261;SDS011;12385;51.412;5.540;2023-03-01T13:25:01;9.98;;;6.70;;
24261;SDS011;12385;51.412;5.540;2023-03-01T13:27:39;10.43;;;6.55;;
24261;SDS011;12385;51.412;5.540;2023-03-01T13:30:12;9.00;;;6.20;;
24261;SDS011;12385;51.412;5.540;2023-03-01T13:32:52;12.63;;;6.18;;
24261;SDS011;12385;51.412;5.540;2023-03-01T13:41:12;10.63;;;6.38;;
24261;SDS011;12385;51.412;5.540;2023-03-01T13:43:43;12.90;;;6.47;;
24261;SDS011;12385;51.412;5.540;2023-03-01T13:46:20;9.32;;;6.32;;
24261;SDS011;12385;51.412;5.540;2023-03-01T13:48:49;10.18;;;6.03;;
24261;SDS011;12385;51.412;5.540;2023-03-01T13:53:46;9.13;;;5.93;;
24261;SDS011;12385;51.412;5.540;2023-03-01T13:56:16;12.95;;;6.30;;
24261;SDS011;12385;51.412;5.540;2023-03-01T13:58:56;10.45;;;5.80;;
24261;SDS011;12385;51.412;5.540;2023-03-01T14:01:30;10.40;;;6.07;;
24261;SDS011;12385;51.412;5.540;2023-03-01T14:03:58;9.88;;;5.80;;
24261;SDS011;12385;51.412;5.540;2023-03-01T14:06:26;8.27;;;5.57;;
24261;SDS011;12385;51.412;5.540;2023-03-01T14:09:10;9.18;;;5.45;;
24261;SDS011;12385;51.412;5.540;2023-03-01T14:12:02;14.65;;;5.90;;
24261;SDS011;12385;51.412;5.540;2023-03-01T14:22:48;8.75;;;5.60;;
24261;SDS011;12385;51.412;5.540;2023-03-01T14:30:41;8.55;;;5.78;;
24261;SDS011;12385;51.412;5.540;2023-03-01T14:33:19;7.95;;;5.60;;
24261;SDS011;12385;51.412;5.540;2023-03-01T14:35:54;9.80;;;5.63;;
24261;SDS011;12385;51.412;5.540;2023-03-01T14:41:04;10.32;;;5.70;;
24261;SDS011;12385;51.412;5.540;2023-03-01T14:43:35;10.70;;;6.00;;
24261;SDS011;12385;51.412;5.540;2023-03-01T14:46:02;9.85;;;6.10;;
24261;SDS011;12385;51.412;5.540;2023-03-01T14:48:28;9.93;;;5.75;;
24261;SDS011;12385;51.412;5.540;2023-03-01T14:50:54;7.70;;;6.05;;
24261;SDS011;12385;51.412;5.540;2023-03-01T14:53:24;11.15;;;5.90;;
24261;SDS011;12385;51.412;5.540;2023-03-01T14:55:56;8.57;;;5.82;;
24261;SDS011;12385;51.412;5.540;2023-03-01T14:58:27;8.30;;;5.40;;
24261;SDS011;12385;51.412;5.540;2023-03-01T15:00:57;7.90;;;5.63;;
24261;SDS011;12385;51.412;5.540;2023-03-01T15:03:32;7.65;;;5.55;;
24261;SDS011;12385;51.412;5.540;2023-03-01T15:06:02;7.85;;;5.45;;
24261;SDS011;12385;51.412;5.540;2023-03-01T15:08:30;9.93;;;5.80;;
24261;SDS011;12385;51.412;5.540;2023-03-01T15:11:01;9.00;;;5.85;;
24261;SDS011;12385;51.412;5.540;2023-03-01T15:13:47;10.52;;;6.22;;
24261;SDS011;12385;51.412;5.540;2023-03-01T15:16:14;8.90;;;6.20;;
24261;SDS011;12385;51.412;5.540;2023-03-01T15:23:41;9.60;;;5.88;;
24261;SDS011;12385;51.412;5.540;2023-03-01T15:26:22;10.48;;;6.20;;
24261;SDS011;12385;51.412;5.540;2023-03-01T15:28:54;9.48;;;6.13;;
24261;SDS011;12385;51.412;5.540;2023-03-01T15:31:27;10.88;;;6.30;;
24261;SDS011;12385;51.412;5.540;2023-03-01T15:36:47;8.57;;;5.90;;
24261;SDS011;12385;51.412;5.540;2023-03-01T15:41:53;8.40;;;6.05;;
24261;SDS011;12385;51.412;5.540;2023-03-01T15:44:25;11.00;;;6.70;;
24261;SDS011;12385;51.412;5.540;2023-03-01T15:46:56;13.48;;;7.22;;
24261;SDS011;12385;51.412;5.540;2023-03-01T15:49:33;10.70;;;6.70;;
24261;SDS011;12385;51.412;5.540;2023-03-01T15:52:03;10.82;;;6.50;;
24261;SDS011;12385;51.412;5.540;2023-03-01T15:54:35;12.63;;;6.85;;
24261;SDS011;12385;51.412;5.540;2023-03-01T15:57:03;13.05;;;6.93;;
24261;SDS011;12385;51.412;5.540;2023-03-01T15:59:28;10.27;;;6.82;;
24261;SDS011;12385;51.412;5.540;2023-03-01T16:01:54;12.60;;;7.22;;
24261;SDS011;12385;51.412;5.540;2023-03-01T16:04:19;11.38;;;7.18;;
24261;SDS011;12385;51.412;5.540;2023-03-01T16:06:52;12.90;;;7.15;;
24261;SDS011;12385;51.412;5.540;2023-03-01T16:09:22;10.45;;;7.22;;
24261;SDS011;12385;51.412;5.540;2023-03-01T16:11:49;10.88;;;7.13;;
24261;SDS011;12385;51.412;5.540;2023-03-01T16:14:16;12.45;;;7.78;;
24261;SDS011;12385;51.412;5.540;2023-03-01T16:16:42;10.75;;;7.05;;
24261;SDS011;12385;51.412;5.540;2023-03-01T16:19:08;13.48;;;7.18;;
24261;SDS011;12385;51.412;5.540;2023-03-01T16:21:35;11.50;;;7.45;;
24261;SDS011;12385;51.412;5.540;2023-03-01T16:24:01;10.63;;;7.53;;
24261;SDS011;12385;51.412;5.540;2023-03-01T16:26:27;11.82;;;7.65;;
24261;SDS011;12385;51.412;5.540;2023-03-01T16:28:56;15.35;;;8.30;;
24261;SDS011;12385;51.412;5.540;2023-03-01T16:31:22;16.50;;;8.30;;
24261;SDS011;12385;51.412;5.540;2023-03-01T16:33:48;15.13;;;8.95;;
24261;SDS011;12385;51.412;5.540;2023-03-01T16:36:17;11.85;;;7.88;;
24261;SDS011;12385;51.412;5.540;2023-03-01T16:38:44;12.03;;;8.43;;
24261;SDS011;12385;51.412;5.540;2023-03-01T16:41:13;14.23;;;8.18;;
24261;SDS011;12385;51.412;5.540;2023-03-01T16:43:41;17.85;;;8.10;;
24261;SDS011;12385;51.412;5.540;2023-03-01T16:46:11;14.52;;;8.60;;
24261;SDS011;12385;51.412;5.540;2023-03-01T16:48:37;13.35;;;8.02;;
24261;SDS011;12385;51.412;5.540;2023-03-01T16:51:03;14.80;;;7.88;;
24261;SDS011;12385;51.412;5.540;2023-03-01T16:53:29;13.07;;;8.43;;
24261;SDS011;12385;51.412;5.540;2023-03-01T16:55:55;12.30;;;8.20;;
24261;SDS011;12385;51.412;5.540;2023-03-01T16:58:21;14.20;;;8.27;;
24261;SDS011;12385;51.412;5.540;2023-03-01T17:00:49;13.18;;;8.13;;
24261;SDS011;12385;51.412;5.540;2023-03-01T17:03:16;15.10;;;7.93;;
24261;SDS011;12385;51.412;5.540;2023-03-01T17:05:42;16.27;;;8.07;;
24261;SDS011;12385;51.412;5.540;2023-03-01T17:08:08;14.27;;;8.05;;
24261;SDS011;12385;51.412;5.540;2023-03-01T17:10:33;12.70;;;8.35;;